Terminal Aerodrome Forecast
Issued by NWS Binghamton, NY

Home | Current Version | Previous Version | Text Only | Print | Product List | Glossary On
Versions: 1 2 3 4 5 6 7 8 9 10 11 12 13 14 15 16 17
000
FTUS41 KBGM 011100
TAFSYR
TAF
KSYR 011126Z 0112/0212 VRB03KT P6SM SCT015 BKN040
      TEMPO 0112/0114 OVC015
     FM011500 27008KT P6SM BKN045
     FM020000 VRB03KT P6SM SCT045 BKN150=

USA.gov is the U.S. government's official web portal to all federal, state and local government web resources and services.